createdAt,value
2018-03-04T00:00:10.979Z,1.90
2018-03-04T00:02:38.687Z,2.00
2018-03-04T00:05:07.471Z,1.90
2018-03-04T00:07:35.491Z,1.90
2018-03-04T00:10:03.464Z,1.90
2018-03-04T00:12:31.499Z,2.00
2018-03-04T00:14:59.187Z,2.00
2018-03-04T00:17:27.101Z,1.90
2018-03-04T00:19:56.060Z,2.00
2018-03-04T00:22:36.337Z,2.10
2018-03-04T00:25:13.408Z,2.00
2018-03-04T00:27:44.314Z,2.00
2018-03-04T00:30:12.220Z,1.90
2018-03-04T00:32:42.115Z,2.00
2018-03-04T00:35:10.646Z,2.10
2018-03-04T00:37:39.344Z,2.00
2018-03-04T00:40:10.982Z,2.10
2018-03-04T00:42:39.239Z,2.20
2018-03-04T00:45:07.920Z,2.20
2018-03-04T00:47:35.704Z,2.20
2018-03-04T00:50:03.989Z,2.20
2018-03-04T00:52:31.711Z,2.20
2018-03-04T00:55:00.313Z,2.20
2018-03-04T00:57:29.979Z,2.10
2018-03-04T00:59:57.684Z,2.10
2018-03-04T01:02:25.549Z,2.10
2018-03-04T01:04:53.430Z,2.10
2018-03-04T01:07:21.607Z,2.00
2018-03-04T01:09:49.523Z,2.00
2018-03-04T01:12:19.232Z,2.00
2018-03-04T01:14:47.123Z,2.10
2018-03-04T01:17:15.051Z,2.00
2018-03-04T01:19:42.808Z,2.10
2018-03-04T01:22:10.677Z,2.10
2018-03-04T01:24:38.435Z,2.10
2018-03-04T01:27:06.077Z,2.10
2018-03-04T01:29:34.786Z,2.00
2018-03-04T01:32:02.612Z,2.00
2018-03-04T01:34:30.330Z,2.10
2018-03-04T01:36:58.272Z,2.10
2018-03-04T01:39:25.960Z,2.10
2018-03-04T01:41:54.424Z,2.20
2018-03-04T01:44:23.070Z,2.20
2018-03-04T01:46:51.583Z,2.20
2018-03-04T01:49:20.024Z,2.20
2018-03-04T01:51:52.764Z,2.20
2018-03-04T01:54:20.435Z,2.20
2018-03-04T01:56:49.794Z,2.30
2018-03-04T01:59:17.678Z,2.20
2018-03-04T02:01:45.564Z,2.30
2018-03-04T02:04:13.642Z,2.30
2018-03-04T02:06:42.209Z,2.30
2018-03-04T02:09:09.934Z,2.30
2018-03-04T02:11:37.649Z,2.30
2018-03-04T02:14:06.129Z,2.40
2018-03-04T02:16:34.187Z,2.30
2018-03-04T02:19:02.966Z,2.40
2018-03-04T02:21:30.698Z,2.40
2018-03-04T02:23:58.367Z,2.30
2018-03-04T02:26:26.055Z,2.40
2018-03-04T02:28:54.835Z,2.40
2018-03-04T02:31:22.596Z,2.40
2018-03-04T02:33:50.389Z,2.30
2018-03-04T02:36:18.137Z,2.30
2018-03-04T02:38:46.583Z,2.30
2018-03-04T02:41:14.302Z,2.30
2018-03-04T02:43:42.958Z,2.30
2018-03-04T02:46:10.708Z,2.30
2018-03-04T02:48:38.380Z,2.30
2018-03-04T02:51:07.267Z,2.30
2018-03-04T02:53:35.425Z,2.30
2018-03-04T02:56:03.102Z,2.30
2018-03-04T02:58:31.965Z,2.40
2018-03-04T03:00:59.675Z,2.50
2018-03-04T03:03:28.220Z,2.50
2018-03-04T03:05:56.054Z,2.50
2018-03-04T03:08:24.528Z,2.60
2018-03-04T03:10:52.254Z,2.60
2018-03-04T03:13:20.709Z,2.50
2018-03-04T03:15:48.427Z,2.50
2018-03-04T03:18:16.164Z,2.50
2018-03-04T03:20:44.104Z,2.50
2018-03-04T03:23:15.167Z,2.60
2018-03-04T03:25:43.003Z,2.50
2018-03-04T03:28:10.814Z,2.50
2018-03-04T03:30:38.508Z,2.50
2018-03-04T03:33:06.938Z,2.50
2018-03-04T03:35:34.759Z,2.50
2018-03-04T03:38:02.483Z,2.60
2018-03-04T03:40:31.247Z,2.70
2018-03-04T03:42:59.240Z,2.70
2018-03-04T03:45:27.003Z,2.70
2018-03-04T03:47:54.757Z,2.70
2018-03-04T03:50:23.152Z,2.70
2018-03-04T03:52:51.256Z,2.70
2018-03-04T03:55:19.895Z,2.70
2018-03-04T03:57:47.965Z,2.70
2018-03-04T04:00:15.775Z,2.70
2018-03-04T04:02:43.573Z,2.80
2018-03-04T04:05:12.055Z,2.70
2018-03-04T04:07:39.858Z,2.60
2018-03-04T04:10:07.690Z,2.70
2018-03-04T04:12:35.429Z,2.60
2018-03-04T04:15:03.114Z,2.60
2018-03-04T04:17:31.638Z,2.60
2018-03-04T04:20:00.301Z,2.70
2018-03-04T04:22:28.845Z,2.70
2018-03-04T04:24:56.418Z,2.70
2018-03-04T04:27:24.192Z,2.70
2018-03-04T04:29:51.877Z,2.70
2018-03-04T04:32:19.858Z,2.80
2018-03-04T04:34:47.847Z,2.80
2018-03-04T04:37:15.696Z,2.70
2018-03-04T04:39:43.586Z,2.70
2018-03-04T04:42:12.921Z,2.70
2018-03-04T04:44:40.892Z,2.70
2018-03-04T04:47:08.660Z,2.70
2018-03-04T04:52:14.529Z,2.80
2018-03-04T04:54:42.409Z,2.70
2018-03-04T04:57:11.032Z,2.80
2018-03-04T04:59:40.285Z,2.80
2018-03-04T05:02:09.150Z,2.70
2018-03-04T05:04:38.091Z,2.70
2018-03-04T05:07:06.521Z,2.70
2018-03-04T05:09:34.330Z,2.70
2018-03-04T05:12:03.481Z,2.80
2018-03-04T05:14:31.276Z,2.70
2018-03-04T05:17:00.452Z,2.70
2018-03-04T05:19:29.120Z,2.70
2018-03-04T05:22:00.112Z,2.70
2018-03-04T05:24:28.250Z,2.80
2018-03-04T05:26:55.930Z,2.70
2018-03-04T05:29:27.767Z,2.70
2018-03-04T05:31:59.337Z,2.70
2018-03-04T05:34:28.321Z,2.70
2018-03-04T05:36:56.211Z,2.70
2018-03-04T05:39:24.900Z,2.70
2018-03-04T05:41:53.417Z,2.70
2018-03-04T05:44:21.349Z,2.70
2018-03-04T05:46:50.466Z,2.80
2018-03-04T05:49:18.452Z,2.70
2018-03-04T05:51:48.108Z,2.60
2018-03-04T05:54:16.745Z,2.70
2018-03-04T05:56:44.518Z,2.70
2018-03-04T05:59:15.063Z,2.80
2018-03-04T06:01:42.753Z,2.90
2018-03-04T06:04:11.110Z,2.90
2018-03-04T06:06:39.054Z,2.80
2018-03-04T06:09:07.734Z,2.90
2018-03-04T06:11:36.265Z,2.90
2018-03-04T06:14:04.760Z,2.90
2018-03-04T06:16:32.437Z,2.80
2018-03-04T06:19:00.128Z,2.90
2018-03-04T06:21:27.796Z,2.90
2018-03-04T06:23:55.517Z,3.00
2018-03-04T06:26:23.419Z,2.90
2018-03-04T06:28:51.170Z,2.80
2018-03-04T06:31:18.828Z,2.80
2018-03-04T06:33:46.655Z,2.80
2018-03-04T06:36:15.068Z,2.90
2018-03-04T06:38:42.762Z,3.00
2018-03-04T06:41:10.585Z,3.00
2018-03-04T06:43:39.145Z,3.10
2018-03-04T06:46:08.200Z,3.00
2018-03-04T06:48:37.040Z,3.00
2018-03-04T06:51:04.788Z,3.00
2018-03-04T06:53:32.532Z,3.10
2018-03-04T06:56:00.403Z,3.10
2018-03-04T06:58:28.180Z,3.10
2018-03-04T07:00:55.879Z,3.10
2018-03-04T07:03:23.559Z,3.10
2018-03-04T07:05:52.151Z,3.20
2018-03-04T07:08:20.048Z,3.40
2018-03-04T07:10:47.914Z,3.30
2018-03-04T07:13:16.483Z,3.40
2018-03-04T07:15:44.458Z,3.40
2018-03-04T07:18:12.212Z,3.40
2018-03-04T07:20:39.924Z,3.50
2018-03-04T07:23:08.108Z,3.50
2018-03-04T07:25:35.810Z,3.60
2018-03-04T07:28:03.588Z,3.50
2018-03-04T07:30:31.431Z,3.70
2018-03-04T07:32:59.109Z,3.80
2018-03-04T07:35:26.804Z,3.70
2018-03-04T07:37:56.031Z,3.70
2018-03-04T07:40:23.725Z,3.70
2018-03-04T07:42:52.563Z,3.90
2018-03-04T07:45:20.259Z,3.90
2018-03-04T07:47:48.020Z,3.90
2018-03-04T07:50:15.817Z,4.00
2018-03-04T07:52:43.599Z,4.00
2018-03-04T07:55:11.307Z,3.80
2018-03-04T07:57:39.736Z,4.00
2018-03-04T08:00:20.230Z,4.10
2018-03-04T08:02:47.978Z,4.10
2018-03-04T08:05:15.636Z,4.20
2018-03-04T08:07:43.303Z,4.10
2018-03-04T08:10:11.749Z,4.10
2018-03-04T08:12:39.386Z,4.20
2018-03-04T08:15:07.838Z,4.30
2018-03-04T08:17:38.327Z,4.30
2018-03-04T08:20:06.878Z,4.40
2018-03-04T08:22:35.228Z,4.40
2018-03-04T08:25:14.716Z,4.40
2018-03-04T08:27:54.987Z,4.50
2018-03-04T08:30:23.941Z,4.60
2018-03-04T08:32:51.647Z,4.60
2018-03-04T08:35:20.306Z,4.60
2018-03-04T08:37:48.195Z,4.90
2018-03-04T08:40:16.001Z,5.10
2018-03-04T08:42:43.734Z,5.30
2018-03-04T08:45:11.555Z,5.30
2018-03-04T08:47:39.338Z,5.30
2018-03-04T08:50:07.800Z,5.20
2018-03-04T08:52:36.215Z,5.20
2018-03-04T08:55:04.218Z,5.30
2018-03-04T08:57:34.688Z,5.30
2018-03-04T09:00:02.521Z,5.30
2018-03-04T09:02:31.094Z,5.30
2018-03-04T09:05:01.052Z,5.40
2018-03-04T09:07:28.935Z,5.30
2018-03-04T09:09:56.714Z,5.40
2018-03-04T09:12:24.691Z,5.50
2018-03-04T09:14:54.940Z,5.30
2018-03-04T09:17:23.210Z,5.50
2018-03-04T09:19:50.890Z,5.60
2018-03-04T09:22:18.650Z,5.60
2018-03-04T09:24:47.096Z,5.40
2018-03-04T09:27:14.898Z,5.60
2018-03-04T09:29:43.521Z,5.80
2018-03-04T09:32:14.434Z,6.20
2018-03-04T09:34:42.117Z,6.20
2018-03-04T09:37:12.247Z,6.50
2018-03-04T09:39:39.972Z,6.40
2018-03-04T09:42:07.717Z,6.70
2018-03-04T09:44:35.412Z,6.70
2018-03-04T09:47:03.159Z,6.70
2018-03-04T09:49:32.676Z,6.80
2018-03-04T09:52:01.204Z,6.40
2018-03-04T09:54:28.901Z,6.40
2018-03-04T09:56:57.379Z,6.50
2018-03-04T09:59:29.089Z,6.80
2018-03-04T10:02:01.504Z,7.60
2018-03-04T10:04:32.955Z,8.50
2018-03-04T10:07:08.795Z,9.00
2018-03-04T10:09:42.171Z,9.30
2018-03-04T10:12:12.218Z,9.80
2018-03-04T10:17:31.399Z,10.10
2018-03-04T10:20:00.994Z,10.20
2018-03-04T10:22:35.313Z,9.80
2018-03-04T10:25:12.791Z,10.40
2018-03-04T10:27:46.775Z,10.70
2018-03-04T10:30:17.649Z,10.80
2018-03-04T10:32:45.388Z,10.80
2018-03-04T10:35:14.323Z,11.00
2018-03-04T10:37:42.222Z,11.40
2018-03-04T10:40:11.006Z,11.50
2018-03-04T10:42:40.271Z,11.80
2018-03-04T10:45:11.241Z,11.80
2018-03-04T10:47:39.047Z,11.70
2018-03-04T10:50:06.765Z,11.20
2018-03-04T10:52:35.445Z,10.70
2018-03-04T10:55:05.757Z,10.60
2018-03-04T10:57:33.545Z,10.60
2018-03-04T11:00:02.139Z,10.60
2018-03-04T11:02:36.333Z,11.10
2018-03-04T11:05:05.531Z,11.10
2018-03-04T11:07:33.451Z,11.10
2018-03-04T11:10:01.233Z,11.10
2018-03-04T11:12:30.150Z,11.20
2018-03-04T11:14:58.381Z,11.50
2018-03-04T11:17:26.470Z,11.50
2018-03-04T11:19:54.621Z,11.00
2018-03-04T11:22:27.097Z,11.20
2018-03-04T11:24:54.808Z,11.10
2018-03-04T11:27:22.540Z,11.10
2018-03-04T11:29:50.427Z,11.00
2018-03-04T11:32:19.646Z,11.50
2018-03-04T11:34:47.424Z,11.10
2018-03-04T11:37:16.682Z,10.70
2018-03-04T11:39:44.807Z,10.60
2018-03-04T11:42:13.347Z,10.90
2018-03-04T11:44:41.060Z,11.50
2018-03-04T11:47:08.826Z,11.70
2018-03-04T11:49:36.657Z,11.70
2018-03-04T11:52:11.414Z,11.60
2018-03-04T11:54:40.072Z,11.60
2018-03-04T11:57:17.445Z,11.60
2018-03-04T11:59:45.263Z,11.80
2018-03-04T12:02:14.357Z,11.80
2018-03-04T12:04:42.021Z,11.90
2018-03-04T12:07:11.136Z,11.70
2018-03-04T12:09:38.939Z,11.90
2018-03-04T12:12:06.794Z,11.20
2018-03-04T12:14:34.672Z,10.90
2018-03-04T12:17:02.598Z,11.10
2018-03-04T12:19:32.840Z,11.70
2018-03-04T12:22:00.704Z,11.70
2018-03-04T12:24:28.447Z,11.80
2018-03-04T12:26:57.807Z,11.80
2018-03-04T12:29:27.261Z,11.60
2018-03-04T12:31:55.231Z,11.60
2018-03-04T12:34:23.069Z,11.40
2018-03-04T12:36:50.784Z,11.20
2018-03-04T12:39:19.767Z,11.40
2018-03-04T12:41:47.467Z,11.90
2018-03-04T12:44:15.219Z,11.90
2018-03-04T12:46:42.981Z,12.00
2018-03-04T12:49:10.953Z,12.00
2018-03-04T12:51:39.766Z,12.10
2018-03-04T12:54:07.564Z,12.10
2018-03-04T12:56:35.307Z,12.50
2018-03-04T12:59:03.911Z,12.40
2018-03-04T13:01:32.395Z,12.40
2018-03-04T13:04:00.199Z,12.30
2018-03-04T13:06:28.036Z,12.20
2018-03-04T13:08:56.578Z,12.10
2018-03-04T13:11:24.343Z,11.80
2018-03-04T13:13:52.772Z,12.10
2018-03-04T13:16:20.517Z,12.10
2018-03-04T13:18:48.193Z,12.50
2018-03-04T13:21:16.108Z,12.40
2018-03-04T13:23:47.778Z,12.20
2018-03-04T13:26:15.609Z,12.40
2018-03-04T13:28:44.150Z,12.50
2018-03-04T13:31:11.942Z,12.40
2018-03-04T13:33:41.306Z,12.30
2018-03-04T13:36:09.685Z,12.20
2018-03-04T13:38:37.675Z,12.30
2018-03-04T13:41:05.474Z,12.20
2018-03-04T13:43:35.384Z,12.30
2018-03-04T13:46:03.135Z,12.10
2018-03-04T13:48:50.995Z,12.10
2018-03-04T13:51:22.371Z,12.50
2018-03-04T13:53:50.155Z,12.50
2018-03-04T13:56:17.859Z,12.80
2018-03-04T13:58:45.705Z,13.10
2018-03-04T14:01:14.237Z,12.70
2018-03-04T14:03:42.141Z,12.70
2018-03-04T14:06:09.837Z,12.60
2018-03-04T14:08:37.806Z,12.50
2018-03-04T14:11:06.129Z,12.50
2018-03-04T14:13:33.909Z,12.50
2018-03-04T14:16:03.144Z,12.20
2018-03-04T14:18:32.223Z,12.20
2018-03-04T14:21:00.230Z,12.10
2018-03-04T14:23:40.111Z,12.10
2018-03-04T14:26:07.957Z,12.20
2018-03-04T14:28:37.533Z,12.30
2018-03-04T14:31:05.330Z,12.30
2018-03-04T14:33:34.081Z,12.40
2018-03-04T14:36:02.308Z,12.60
2018-03-04T14:38:30.145Z,12.50
2018-03-04T14:41:01.694Z,12.50
2018-03-04T14:43:29.475Z,12.00
2018-03-04T14:46:00.569Z,11.70
2018-03-04T14:48:29.020Z,11.70
2018-03-04T14:50:59.777Z,11.70
2018-03-04T14:53:28.127Z,11.50
2018-03-04T14:55:56.025Z,11.50
2018-03-04T14:58:24.484Z,11.40
2018-03-04T15:00:54.016Z,11.50
2018-03-04T15:03:29.406Z,11.60
2018-03-04T15:05:57.429Z,11.60
2018-03-04T15:08:26.880Z,11.70
2018-03-04T15:10:55.646Z,11.60
2018-03-04T15:13:23.405Z,11.60
2018-03-04T15:15:51.304Z,11.40
2018-03-04T15:18:26.284Z,11.30
2018-03-04T15:20:56.315Z,11.10
2018-03-04T15:23:24.402Z,11.10
2018-03-04T15:25:53.749Z,11.10
2018-03-04T15:28:23.064Z,11.10
2018-03-04T15:30:52.588Z,11.00
2018-03-04T15:33:24.963Z,10.90
2018-03-04T15:35:53.334Z,10.80
2018-03-04T15:38:25.725Z,10.90
2018-03-04T15:40:57.370Z,10.80
2018-03-04T15:43:31.577Z,10.80
2018-03-04T15:46:01.927Z,10.80
2018-03-04T15:48:37.571Z,10.80
2018-03-04T15:51:05.382Z,10.70
2018-03-04T15:53:33.253Z,10.70
2018-03-04T15:56:00.991Z,10.80
2018-03-04T15:58:28.854Z,10.70
2018-03-04T16:00:56.694Z,10.70
2018-03-04T16:03:25.237Z,10.70
2018-03-04T16:05:53.030Z,10.60
2018-03-04T16:08:21.171Z,10.60
2018-03-04T16:10:52.224Z,10.60
2018-03-04T16:16:05.245Z,10.50
2018-03-04T16:18:33.185Z,10.60
2018-03-04T16:21:03.238Z,10.50
2018-03-04T16:23:32.035Z,10.50
2018-03-04T16:26:01.594Z,10.40
2018-03-04T16:28:29.622Z,10.40
2018-03-04T16:30:59.237Z,10.30
2018-03-04T16:33:30.313Z,10.30
2018-03-04T16:35:59.106Z,10.10
2018-03-04T16:38:27.745Z,10.10
2018-03-04T16:40:56.448Z,10.10
2018-03-04T16:43:24.953Z,10.10
2018-03-04T16:45:52.814Z,10.00
2018-03-04T16:48:21.507Z,10.00
2018-03-04T16:50:49.288Z,9.90
2018-03-04T16:53:17.949Z,9.80
2018-03-04T16:55:45.756Z,9.70
2018-03-04T16:58:14.172Z,9.80
2018-03-04T17:00:43.104Z,9.80
2018-03-04T17:03:12.008Z,9.60
2018-03-04T17:05:39.983Z,9.50
2018-03-04T17:08:09.882Z,9.50
2018-03-04T17:10:38.469Z,9.50
2018-03-04T17:13:06.305Z,9.50
2018-03-04T17:15:35.178Z,9.40
2018-03-04T17:18:03.025Z,9.40
2018-03-04T17:20:30.830Z,9.40
2018-03-04T17:22:58.537Z,9.40
2018-03-04T17:25:26.995Z,9.30
2018-03-04T17:27:54.759Z,9.30
2018-03-04T17:30:22.633Z,9.30
2018-03-04T17:32:52.094Z,9.20
2018-03-04T17:35:19.839Z,9.20
2018-03-04T17:37:47.693Z,9.00
2018-03-04T17:40:15.397Z,9.00
2018-03-04T17:42:43.211Z,9.00
2018-03-04T17:45:10.931Z,9.00
2018-03-04T17:47:38.729Z,8.80
2018-03-04T17:50:07.518Z,8.90
2018-03-04T17:52:36.044Z,8.90
2018-03-04T17:55:03.868Z,8.90
2018-03-04T17:57:39.212Z,8.90
2018-03-04T18:00:08.168Z,8.90
2018-03-04T18:02:36.750Z,8.90
2018-03-04T18:07:45.506Z,8.90
2018-03-04T18:10:15.308Z,8.70
2018-03-04T18:12:44.682Z,8.70
2018-03-04T18:17:49.078Z,8.70
2018-03-04T18:20:17.596Z,8.80
2018-03-04T18:22:46.053Z,8.80
2018-03-04T18:25:13.921Z,8.80
2018-03-04T18:27:42.511Z,8.60
2018-03-04T18:30:11.128Z,8.70
2018-03-04T18:32:40.781Z,8.80
2018-03-04T18:35:09.037Z,8.80
2018-03-04T18:37:38.543Z,8.80
2018-03-04T18:40:09.238Z,8.80
2018-03-04T18:42:39.528Z,8.70
2018-03-04T18:45:11.832Z,8.80
2018-03-04T18:47:43.623Z,8.80
2018-03-04T18:50:11.494Z,8.70
2018-03-04T18:52:40.044Z,8.70
2018-03-04T18:55:07.819Z,8.60
2018-03-04T18:57:35.638Z,8.50
2018-03-04T19:00:03.653Z,8.50
2018-03-04T19:02:31.753Z,8.50
2018-03-04T19:05:00.382Z,8.50
2018-03-04T19:07:28.330Z,8.50
2018-03-04T19:09:56.351Z,8.50
2018-03-04T19:12:26.844Z,8.50
2018-03-04T19:15:00.938Z,8.50
2018-03-04T19:17:29.892Z,8.40
2018-03-04T19:19:58.214Z,8.40
2018-03-04T19:22:30.025Z,7.50
2018-03-04T19:24:58.033Z,8.40
2018-03-04T19:27:25.742Z,8.30
2018-03-04T19:29:56.124Z,8.30
2018-03-04T19:32:39.927Z,8.40
2018-03-04T19:35:08.828Z,8.40
2018-03-04T19:40:15.327Z,8.40
2018-03-04T19:42:44.353Z,8.40
2018-03-04T19:45:13.947Z,8.30
2018-03-04T19:47:42.394Z,8.20
2018-03-04T19:50:10.532Z,8.20
2018-03-04T19:52:45.919Z,8.20
2018-03-04T19:55:15.758Z,8.20
2018-03-04T19:57:47.518Z,8.10
2018-03-04T20:00:17.964Z,8.10
2018-03-04T20:02:54.151Z,8.10
2018-03-04T20:05:23.514Z,8.10
2018-03-04T20:07:51.527Z,7.90
2018-03-04T20:10:20.478Z,7.90
2018-03-04T20:12:53.027Z,7.90
2018-03-04T20:15:20.854Z,7.90
2018-03-04T20:17:48.973Z,8.00
2018-03-04T20:20:18.647Z,8.00
2018-03-04T20:22:53.086Z,8.10
2018-03-04T20:25:21.113Z,8.10
2018-03-04T20:27:52.670Z,8.10
2018-03-04T20:30:23.392Z,8.20
2018-03-04T20:32:51.140Z,8.10
2018-03-04T20:35:25.120Z,8.10
2018-03-04T20:37:53.160Z,8.10
2018-03-04T20:40:21.839Z,8.10
2018-03-04T20:42:49.935Z,8.10
2018-03-04T20:45:19.828Z,8.20
2018-03-04T20:47:49.704Z,8.20
2018-03-04T20:52:52.667Z,8.20
2018-03-04T20:55:20.460Z,8.30
2018-03-04T20:57:48.451Z,8.30
2018-03-04T21:00:16.368Z,8.30
2018-03-04T21:02:44.656Z,8.30
2018-03-04T21:05:12.937Z,8.40
2018-03-04T21:07:40.923Z,8.30
2018-03-04T21:10:09.519Z,8.40
2018-03-04T21:12:37.425Z,8.40
2018-03-04T21:15:06.490Z,8.40
2018-03-04T21:17:34.271Z,8.30
2018-03-04T21:20:02.490Z,8.40
2018-03-04T21:22:30.376Z,8.40
2018-03-04T21:24:59.769Z,8.40
2018-03-04T21:27:28.225Z,8.40
2018-03-04T21:29:57.018Z,8.40
2018-03-04T21:32:26.869Z,8.40
2018-03-04T21:34:57.561Z,8.50
2018-03-04T21:37:26.823Z,8.50
2018-03-04T21:39:57.786Z,8.50
2018-03-04T21:42:26.438Z,8.70
2018-03-04T21:44:54.398Z,8.60
2018-03-04T21:47:22.525Z,8.80
2018-03-04T21:49:50.826Z,8.70
2018-03-04T21:52:18.619Z,8.80
2018-03-04T21:54:46.586Z,8.70
2018-03-04T21:57:15.353Z,8.80
2018-03-04T21:59:48.884Z,8.90
2018-03-04T22:02:16.624Z,8.90
2018-03-04T22:04:45.218Z,9.00
2018-03-04T22:07:13.106Z,9.00
2018-03-04T22:09:41.977Z,9.00
2018-03-04T22:12:10.250Z,9.00
2018-03-04T22:14:56.231Z,9.00
2018-03-04T22:17:26.333Z,9.00
2018-03-04T22:19:54.145Z,9.10
2018-03-04T22:22:23.115Z,9.20
2018-03-04T22:24:51.895Z,9.10
2018-03-04T22:27:19.738Z,9.20
2018-03-04T22:29:47.563Z,9.20
2018-03-04T22:32:15.370Z,9.30
2018-03-04T22:34:43.126Z,9.20
2018-03-04T22:37:12.628Z,9.20
2018-03-04T22:39:40.248Z,9.30
2018-03-04T22:42:09.522Z,9.20
2018-03-04T22:44:38.376Z,9.00
2018-03-04T22:47:07.905Z,9.00
2018-03-04T22:49:35.607Z,9.00
2018-03-04T22:52:03.487Z,9.00
2018-03-04T22:54:32.008Z,9.00
2018-03-04T22:57:00.672Z,9.00
2018-03-04T22:59:28.561Z,8.90
2018-03-04T23:01:57.434Z,9.00
2018-03-04T23:04:25.194Z,9.00
2018-03-04T23:06:52.903Z,8.90
2018-03-04T23:09:21.672Z,8.90
2018-03-04T23:11:49.382Z,8.90
2018-03-04T23:14:18.046Z,8.90
2018-03-04T23:16:45.703Z,8.90
2018-03-04T23:19:13.423Z,8.90
2018-03-04T23:21:41.137Z,9.00
2018-03-04T23:24:08.951Z,9.00
2018-03-04T23:26:36.748Z,9.10
2018-03-04T23:29:05.235Z,9.10
2018-03-04T23:31:32.992Z,9.10
2018-03-04T23:34:00.714Z,9.10
2018-03-04T23:36:29.485Z,9.10
2018-03-04T23:38:58.032Z,8.90
2018-03-04T23:41:26.766Z,8.90
2018-03-04T23:43:54.489Z,8.90
2018-03-04T23:46:22.392Z,8.80
2018-03-04T23:48:50.090Z,8.80
2018-03-04T23:51:17.791Z,8.60
2018-03-04T23:53:45.499Z,8.60
2018-03-04T23:56:13.799Z,8.50
2018-03-04T23:58:41.692Z,8.40
